createdAt,value
2018-08-20T00:01:26.373Z,101200.00
2018-08-20T00:03:55.477Z,101207.00
2018-08-20T00:06:24.306Z,101204.00
2018-08-20T00:08:53.115Z,101210.00
2018-08-20T00:11:22.384Z,101207.00
2018-08-20T00:13:51.197Z,101206.00
2018-08-20T00:16:20.014Z,101196.00
2018-08-20T00:18:48.863Z,101197.00
2018-08-20T00:21:17.678Z,101194.00
2018-08-20T00:23:46.493Z,101196.00
2018-08-20T00:26:15.799Z,101200.00
2018-08-20T00:28:44.699Z,101204.00
2018-08-20T00:31:14.925Z,101200.00
2018-08-20T00:33:50.450Z,101199.00
2018-08-20T00:36:19.279Z,101198.00
2018-08-20T00:38:48.078Z,101192.00
2018-08-20T00:41:23.680Z,101188.00
2018-08-20T00:43:52.473Z,101192.00
2018-08-20T00:46:21.327Z,101204.00
2018-08-20T00:48:50.164Z,101197.00
2018-08-20T00:51:19.038Z,101199.00
2018-08-20T00:53:47.870Z,101210.00
2018-08-20T00:56:16.691Z,101194.00
2018-08-20T00:58:45.509Z,101199.00
2018-08-20T01:01:14.405Z,101197.00
2018-08-20T01:03:43.889Z,101196.00
2018-08-20T01:06:12.708Z,101210.00
2018-08-20T01:08:41.535Z,101201.00
2018-08-20T01:11:10.347Z,101204.00
2018-08-20T01:13:39.969Z,101207.00
2018-08-20T01:16:08.842Z,101203.00
2018-08-20T01:18:37.663Z,101196.00
2018-08-20T01:21:06.465Z,101208.00
2018-08-20T01:23:35.258Z,101208.00
2018-08-20T01:26:04.507Z,101205.00
2018-08-20T01:28:33.294Z,101205.00
2018-08-20T01:31:02.107Z,101208.00
2018-08-20T01:33:31.000Z,101208.00
2018-08-20T01:35:59.810Z,101210.00
2018-08-20T01:38:28.652Z,101206.00
2018-08-20T01:40:57.484Z,101213.00
2018-08-20T01:43:26.284Z,101220.00
2018-08-20T01:45:55.148Z,101222.00
2018-08-20T01:48:24.253Z,101219.00
2018-08-20T01:50:53.092Z,101219.00
2018-08-20T01:53:21.935Z,101215.00
2018-08-20T01:55:50.761Z,101214.00
2018-08-20T01:58:19.606Z,101218.00
2018-08-20T02:00:48.401Z,101216.00
2018-08-20T02:03:17.262Z,101220.00
2018-08-20T02:05:46.061Z,101220.00
2018-08-20T02:08:14.879Z,101218.00
2018-08-20T02:10:43.935Z,101214.00
2018-08-20T02:13:12.759Z,101215.00
2018-08-20T02:15:42.025Z,101210.00
2018-08-20T02:18:11.258Z,101211.00
2018-08-20T02:20:40.059Z,101213.00
2018-08-20T02:23:08.904Z,101205.00
2018-08-20T02:25:37.738Z,101210.00
2018-08-20T02:28:06.794Z,101207.00
2018-08-20T02:30:35.579Z,101204.00
2018-08-20T02:33:04.906Z,101211.00
2018-08-20T02:35:33.704Z,101199.00
2018-08-20T02:38:02.499Z,101204.00
2018-08-20T02:40:31.335Z,101195.00
2018-08-20T02:43:00.161Z,101195.00
2018-08-20T02:45:29.053Z,101188.00
2018-08-20T02:47:57.883Z,101193.00
2018-08-20T02:50:26.717Z,101199.00
2018-08-20T02:52:55.541Z,101201.00
2018-08-20T02:55:24.647Z,101190.00
2018-08-20T02:57:53.479Z,101176.00
2018-08-20T03:00:22.332Z,101182.00
2018-08-20T03:02:51.178Z,101184.00
2018-08-20T03:05:19.967Z,101185.00
2018-08-20T03:07:48.762Z,101177.00
2018-08-20T03:10:17.588Z,101191.00
2018-08-20T03:12:46.413Z,101179.00
2018-08-20T03:15:15.229Z,101179.00
2018-08-20T03:17:44.951Z,101176.00
2018-08-20T03:20:13.803Z,101182.00
2018-08-20T03:22:42.613Z,101179.00
2018-08-20T03:25:11.512Z,101179.00
2018-08-20T03:27:40.322Z,101179.00
2018-08-20T03:30:10.081Z,101174.00
2018-08-20T03:32:39.559Z,101179.00
2018-08-20T03:35:10.697Z,101177.00
2018-08-20T03:37:39.555Z,101171.00
2018-08-20T03:40:12.005Z,101178.00
2018-08-20T03:42:40.890Z,101178.00
2018-08-20T03:45:10.530Z,101176.00
2018-08-20T03:47:39.567Z,101172.00
2018-08-20T03:50:11.965Z,101179.00
2018-08-20T03:52:40.871Z,101178.00
2018-08-20T03:55:09.732Z,101180.00
2018-08-20T03:57:38.961Z,101182.00
2018-08-20T04:00:10.537Z,101182.00
2018-08-20T04:02:39.366Z,101184.00
2018-08-20T04:05:09.114Z,101180.00
2018-08-20T04:07:37.801Z,101178.00
2018-08-20T04:10:08.242Z,101177.00
2018-08-20T04:12:37.043Z,101175.00
2018-08-20T04:15:07.047Z,101179.00
2018-08-20T04:17:35.868Z,101177.00
2018-08-20T04:20:05.091Z,101186.00
2018-08-20T04:22:34.651Z,101179.00
2018-08-20T04:25:03.447Z,101178.00
2018-08-20T04:27:32.230Z,101181.00
2018-08-20T04:30:01.099Z,101193.00
2018-08-20T04:32:30.814Z,101188.00
2018-08-20T04:34:59.689Z,101191.00
2018-08-20T04:37:28.554Z,101193.00
2018-08-20T04:39:57.379Z,101193.00
2018-08-20T04:42:26.215Z,101193.00
2018-08-20T04:44:55.796Z,101199.00
2018-08-20T04:47:24.630Z,101195.00
2018-08-20T04:49:53.455Z,101198.00
2018-08-20T04:52:22.265Z,101200.00
2018-08-20T04:54:51.105Z,101202.00
2018-08-20T04:57:19.926Z,101195.00
2018-08-20T04:59:48.827Z,101194.00
2018-08-20T05:02:17.630Z,101191.00
2018-08-20T05:04:46.459Z,101190.00
2018-08-20T05:07:15.753Z,101197.00
2018-08-20T05:09:44.559Z,101197.00
2018-08-20T05:12:13.403Z,101198.00
2018-08-20T05:14:42.210Z,101202.00
2018-08-20T05:17:11.943Z,101206.00
2018-08-20T05:19:40.763Z,101200.00
2018-08-20T05:22:09.988Z,101198.00
2018-08-20T05:24:38.779Z,101206.00
2018-08-20T05:27:07.627Z,101212.00
2018-08-20T05:29:36.972Z,101206.00
2018-08-20T05:32:06.096Z,101214.00
2018-08-20T05:34:34.937Z,101215.00
2018-08-20T05:37:04.147Z,101220.00
2018-08-20T05:39:32.968Z,101223.00
2018-08-20T05:42:01.813Z,101227.00
2018-08-20T05:44:37.280Z,101224.00
2018-08-20T05:47:06.426Z,101226.00
2018-08-20T05:49:35.235Z,101236.00
2018-08-20T05:52:04.558Z,101235.00
2018-08-20T05:54:33.352Z,101233.00
2018-08-20T05:57:02.185Z,101236.00
2018-08-20T05:59:31.019Z,101242.00
2018-08-20T06:01:59.858Z,101246.00
2018-08-20T06:04:29.607Z,101239.00
2018-08-20T06:06:58.433Z,101236.00
2018-08-20T06:09:27.890Z,101248.00
2018-08-20T06:11:56.699Z,101249.00
2018-08-20T06:14:25.914Z,101252.00
2018-08-20T06:16:54.759Z,101251.00
2018-08-20T06:19:23.578Z,101253.00
2018-08-20T06:21:52.432Z,101260.00
2018-08-20T06:24:22.183Z,101266.00
2018-08-20T06:26:50.995Z,101270.00
2018-08-20T06:29:19.818Z,101273.00
2018-08-20T06:31:48.630Z,101273.00
2018-08-20T06:34:17.425Z,101263.00
2018-08-20T06:36:46.366Z,101276.00
2018-08-20T06:39:15.206Z,101279.00
2018-08-20T06:41:44.049Z,101268.00
2018-08-20T06:44:12.935Z,101272.00
2018-08-20T06:46:41.757Z,101269.00
2018-08-20T06:49:10.924Z,101279.00
2018-08-20T06:51:46.443Z,101269.00
2018-08-20T06:54:15.291Z,101210.00
2018-08-20T06:56:44.166Z,101262.00
2018-08-20T06:59:13.524Z,101267.00
2018-08-20T07:01:42.368Z,101270.00
2018-08-20T07:04:11.193Z,101256.00
2018-08-20T07:06:40.083Z,101260.00
2018-08-20T07:09:08.908Z,101258.00
2018-08-20T07:11:37.725Z,101270.00
2018-08-20T07:14:06.571Z,101262.00
2018-08-20T07:16:35.446Z,101267.00
2018-08-20T07:19:04.255Z,101278.00
2018-08-20T07:21:33.440Z,101273.00
2018-08-20T07:24:02.236Z,101276.00
2018-08-20T07:26:31.657Z,101283.00
2018-08-20T07:29:00.506Z,101287.00
2018-08-20T07:31:29.305Z,101283.00
2018-08-20T07:33:58.104Z,101274.00
2018-08-20T07:36:26.940Z,101278.00
2018-08-20T07:38:55.842Z,101289.00
2018-08-20T07:41:24.698Z,101294.00
2018-08-20T07:43:54.164Z,101292.00
2018-08-20T07:46:22.972Z,101303.00
2018-08-20T07:48:51.759Z,101295.00
2018-08-20T07:51:20.563Z,101306.00
2018-08-20T07:53:49.369Z,101303.00
2018-08-20T07:56:18.174Z,101313.00
2018-08-20T07:58:47.000Z,101309.00
2018-08-20T08:01:15.829Z,101320.00
2018-08-20T08:03:44.625Z,101314.00
2018-08-20T08:06:13.986Z,101308.00
2018-08-20T08:08:42.823Z,101305.00
2018-08-20T08:11:11.595Z,101308.00
2018-08-20T08:13:40.404Z,101308.00
2018-08-20T08:16:09.275Z,101307.00
2018-08-20T08:18:38.100Z,101311.00
2018-08-20T08:21:06.925Z,101321.00
2018-08-20T08:23:35.843Z,101318.00
2018-08-20T08:26:04.647Z,101311.00
2018-08-20T08:28:34.109Z,101325.00
2018-08-20T08:31:02.905Z,101318.00
2018-08-20T08:33:31.726Z,101325.00
2018-08-20T08:36:00.542Z,101335.00
2018-08-20T08:38:29.358Z,101327.00
2018-08-20T08:40:58.163Z,101321.00
2018-08-20T08:43:27.011Z,101333.00
2018-08-20T08:45:55.843Z,101331.00
2018-08-20T08:48:24.638Z,101329.00
2018-08-20T08:50:54.127Z,101335.00
2018-08-20T08:53:22.930Z,101331.00
2018-08-20T08:55:51.733Z,101334.00
2018-08-20T08:58:20.544Z,101327.00
2018-08-20T09:00:49.401Z,101321.00
2018-08-20T09:03:25.062Z,101324.00
2018-08-20T09:05:53.864Z,101329.00
2018-08-20T09:08:22.663Z,101332.00
2018-08-20T09:10:51.766Z,101331.00
2018-08-20T09:13:20.584Z,101326.00
2018-08-20T09:15:49.464Z,101331.00
2018-08-20T09:18:18.377Z,101331.00
2018-08-20T09:20:47.176Z,101330.00
2018-08-20T09:23:16.018Z,101323.00
2018-08-20T09:25:44.922Z,101320.00
2018-08-20T09:28:13.746Z,101316.00
2018-08-20T09:30:42.867Z,101323.00
2018-08-20T09:33:12.122Z,101331.00
2018-08-20T09:35:40.959Z,101315.00
2018-08-20T09:38:09.906Z,101323.00
2018-08-20T09:40:38.698Z,101329.00
2018-08-20T09:43:08.161Z,101327.00
2018-08-20T09:45:36.987Z,101324.00
2018-08-20T09:48:05.833Z,101320.00
2018-08-20T09:50:34.658Z,101329.00
2018-08-20T09:53:03.450Z,101326.00
2018-08-20T09:55:32.664Z,101337.00
2018-08-20T09:58:01.458Z,101326.00
2018-08-20T10:00:35.812Z,101325.00
2018-08-20T10:03:04.610Z,101335.00
2018-08-20T10:05:33.438Z,101330.00
2018-08-20T10:08:02.271Z,101333.00
2018-08-20T10:10:31.087Z,101328.00
2018-08-20T10:12:59.910Z,101327.00
2018-08-20T10:15:29.116Z,101330.00
2018-08-20T10:17:57.959Z,101336.00
2018-08-20T10:20:26.791Z,101332.00
2018-08-20T10:22:55.630Z,101329.00
2018-08-20T10:25:24.464Z,101334.00
2018-08-20T10:27:53.311Z,101332.00
2018-08-20T10:30:22.141Z,101321.00
2018-08-20T10:32:51.447Z,101326.00
2018-08-20T10:35:23.344Z,101328.00
2018-08-20T10:37:52.282Z,101332.00
2018-08-20T10:40:21.043Z,101329.00
2018-08-20T10:42:49.878Z,101332.00
2018-08-20T10:45:19.901Z,101341.00
2018-08-20T10:47:49.819Z,101330.00
2018-08-20T10:50:20.053Z,101342.00
2018-08-20T10:52:50.158Z,101340.00
2018-08-20T10:55:19.081Z,101336.00
2018-08-20T10:57:48.043Z,101336.00
2018-08-20T11:00:17.251Z,101342.00
2018-08-20T11:02:46.116Z,101351.00
2018-08-20T11:05:17.269Z,101335.00
2018-08-20T11:07:46.109Z,101328.00
2018-08-20T11:10:14.999Z,101323.00
2018-08-20T11:12:43.749Z,101328.00
2018-08-20T11:15:12.948Z,101337.00
2018-08-20T11:17:41.778Z,101332.00
2018-08-20T11:20:17.381Z,101330.00
2018-08-20T11:22:46.218Z,101337.00
2018-08-20T11:25:16.551Z,101335.00
2018-08-20T11:27:45.383Z,101334.00
2018-08-20T11:30:15.385Z,101338.00
2018-08-20T11:32:44.159Z,101331.00
2018-08-20T11:35:13.396Z,101338.00
2018-08-20T11:37:42.382Z,101335.00
2018-08-20T11:40:11.242Z,101343.00
2018-08-20T11:42:40.480Z,101330.00
2018-08-20T11:45:12.535Z,101334.00
2018-08-20T11:47:41.450Z,101342.00
2018-08-20T11:50:10.727Z,101337.00
2018-08-20T11:52:40.169Z,101336.00
2018-08-20T11:55:09.844Z,101347.00
2018-08-20T11:57:38.680Z,101345.00
2018-08-20T12:00:09.643Z,101340.00
2018-08-20T12:02:38.976Z,101360.00
2018-08-20T12:05:09.541Z,101344.00
2018-08-20T12:07:38.393Z,101347.00
2018-08-20T12:10:09.526Z,101352.00
2018-08-20T12:12:38.801Z,101346.00
2018-08-20T12:15:10.959Z,101341.00
2018-08-20T12:17:40.290Z,101348.00
2018-08-20T12:20:09.823Z,101360.00
2018-08-20T12:22:40.068Z,101344.00
2018-08-20T12:25:11.653Z,101355.00
2018-08-20T12:27:40.604Z,101343.00
2018-08-20T12:30:10.953Z,101343.00
2018-08-20T12:32:39.825Z,101350.00
2018-08-20T12:35:09.621Z,101350.00
2018-08-20T12:37:39.722Z,101350.00
2018-08-20T12:40:08.757Z,101343.00
2018-08-20T12:42:37.526Z,101346.00
2018-08-20T12:45:08.048Z,101361.00
2018-08-20T12:47:37.583Z,101355.00
2018-08-20T12:50:07.548Z,101361.00
2018-08-20T12:52:36.663Z,101364.00
2018-08-20T12:55:05.823Z,101349.00
2018-08-20T12:57:34.657Z,101348.00
2018-08-20T13:00:03.519Z,101349.00
2018-08-20T13:02:33.430Z,101352.00
2018-08-20T13:05:03.279Z,101344.00
2018-08-20T13:07:33.169Z,101351.00
2018-08-20T13:10:01.986Z,101351.00
2018-08-20T13:12:30.825Z,101352.00
2018-08-20T13:14:59.745Z,101352.00
2018-08-20T13:17:28.551Z,101355.00
2018-08-20T13:19:57.345Z,101356.00
2018-08-20T13:22:26.141Z,101359.00
2018-08-20T13:24:54.946Z,101355.00
2018-08-20T13:27:23.780Z,101348.00
2018-08-20T13:29:53.118Z,101350.00
2018-08-20T13:32:21.926Z,101342.00
2018-08-20T13:34:50.725Z,101356.00
2018-08-20T13:37:19.672Z,101356.00
2018-08-20T13:39:48.871Z,101350.00
2018-08-20T13:42:17.707Z,101352.00
2018-08-20T13:44:46.558Z,101352.00
2018-08-20T13:47:22.185Z,101360.00
2018-08-20T13:49:52.168Z,101359.00
2018-08-20T13:52:21.194Z,101343.00
2018-08-20T13:54:50.043Z,101364.00
2018-08-20T13:57:18.867Z,101362.00
2018-08-20T13:59:47.662Z,101346.00
2018-08-20T14:02:16.476Z,101355.00
2018-08-20T14:04:45.304Z,101351.00
2018-08-20T14:07:14.133Z,101341.00
2018-08-20T14:09:42.996Z,101337.00
2018-08-20T14:12:12.325Z,101336.00
2018-08-20T14:14:41.126Z,101346.00
2018-08-20T14:17:09.967Z,101343.00
2018-08-20T14:19:38.998Z,101343.00
2018-08-20T14:22:07.829Z,101346.00
2018-08-20T14:24:36.657Z,101346.00
2018-08-20T14:27:05.565Z,101346.00
2018-08-20T14:29:34.355Z,101350.00
2018-08-20T14:32:03.270Z,101355.00
2018-08-20T14:34:32.751Z,101347.00
2018-08-20T14:37:01.597Z,101340.00
2018-08-20T14:39:30.415Z,101341.00
2018-08-20T14:42:00.343Z,101340.00
2018-08-20T14:44:29.281Z,101342.00
2018-08-20T14:46:58.102Z,101334.00
2018-08-20T14:49:26.928Z,101332.00
2018-08-20T14:51:55.737Z,101323.00
2018-08-20T14:54:24.615Z,101332.00
2018-08-20T14:56:55.370Z,101341.00
2018-08-20T14:59:24.223Z,101344.00
2018-08-20T15:01:53.074Z,101346.00
2018-08-20T15:04:21.931Z,101349.00
2018-08-20T15:07:01.902Z,101351.00
2018-08-20T15:09:31.396Z,101349.00
2018-08-20T15:12:00.460Z,101348.00
2018-08-20T15:14:29.328Z,101345.00
2018-08-20T15:16:58.451Z,101357.00
2018-08-20T15:19:27.289Z,101355.00
2018-08-20T15:21:56.120Z,101355.00
2018-08-20T15:24:24.915Z,101355.00
2018-08-20T15:26:53.727Z,101344.00
2018-08-20T15:29:22.648Z,101350.00
2018-08-20T15:31:51.521Z,101355.00
2018-08-20T15:34:20.316Z,101358.00
2018-08-20T15:36:49.140Z,101357.00
2018-08-20T15:39:18.269Z,101351.00
2018-08-20T15:41:47.085Z,101359.00
2018-08-20T15:44:16.174Z,101358.00
2018-08-20T15:46:45.005Z,101352.00
2018-08-20T15:49:13.811Z,101346.00
2018-08-20T15:51:42.618Z,101351.00
2018-08-20T15:54:11.454Z,101349.00
2018-08-20T15:56:40.265Z,101360.00
2018-08-20T15:59:09.070Z,101361.00
2018-08-20T16:01:38.587Z,101364.00
2018-08-20T16:04:07.396Z,101358.00
2018-08-20T16:06:36.241Z,101362.00
2018-08-20T16:09:07.787Z,101361.00
2018-08-20T16:11:36.585Z,101352.00
2018-08-20T16:14:05.426Z,101348.00
2018-08-20T16:16:34.244Z,101349.00
2018-08-20T16:19:03.066Z,101341.00
2018-08-20T16:21:31.898Z,101349.00
2018-08-20T16:24:00.975Z,101336.00
2018-08-20T16:26:29.766Z,101348.00
2018-08-20T16:28:58.555Z,101348.00
2018-08-20T16:31:27.418Z,101342.00
2018-08-20T16:33:56.219Z,101343.00
2018-08-20T16:36:25.067Z,101337.00
2018-08-20T16:38:53.872Z,101331.00
2018-08-20T16:41:22.714Z,101326.00
2018-08-20T16:43:51.521Z,101323.00
2018-08-20T16:46:20.970Z,101327.00
2018-08-20T16:48:49.773Z,101327.00
2018-08-20T16:51:18.576Z,101332.00
2018-08-20T16:53:47.376Z,101331.00
2018-08-20T16:56:16.306Z,101338.00
2018-08-20T16:58:45.118Z,101330.00
2018-08-20T17:01:17.007Z,101327.00
2018-08-20T17:03:45.899Z,101335.00
2018-08-20T17:06:14.713Z,101327.00
2018-08-20T17:08:45.302Z,101319.00
2018-08-20T17:11:14.691Z,101321.00
2018-08-20T17:13:43.507Z,101326.00
2018-08-20T17:16:15.219Z,101321.00
2018-08-20T17:18:44.031Z,101318.00
2018-08-20T17:21:13.659Z,101324.00
2018-08-20T17:23:42.730Z,101313.00
2018-08-20T17:26:11.559Z,101321.00
2018-08-20T17:28:40.355Z,101319.00
2018-08-20T17:31:13.417Z,101322.00
2018-08-20T17:33:42.141Z,101323.00
2018-08-20T17:36:10.977Z,101321.00
2018-08-20T17:38:39.887Z,101329.00
2018-08-20T17:41:09.292Z,101325.00
2018-08-20T17:43:38.087Z,101335.00
2018-08-20T17:46:06.952Z,101330.00
2018-08-20T17:48:36.159Z,101335.00
2018-08-20T17:51:05.039Z,101350.00
2018-08-20T17:53:51.163Z,101337.00
2018-08-20T17:56:20.048Z,101344.00
2018-08-20T17:58:57.379Z,101343.00
2018-08-20T18:01:26.799Z,101352.00
2018-08-20T18:03:55.720Z,101350.00
2018-08-20T18:06:43.208Z,101352.00
2018-08-20T18:09:12.094Z,101347.00
2018-08-20T18:11:46.650Z,101340.00
2018-08-20T18:14:15.499Z,101349.00
2018-08-20T18:16:44.301Z,101361.00
2018-08-20T18:19:13.551Z,101359.00
2018-08-20T18:21:42.358Z,101366.00
2018-08-20T18:24:17.520Z,101369.00
2018-08-20T18:26:47.888Z,101369.00
2018-08-20T18:29:16.691Z,101367.00
2018-08-20T18:31:46.084Z,101369.00
2018-08-20T18:34:14.865Z,101355.00
2018-08-20T18:36:43.696Z,101362.00
2018-08-20T18:39:19.964Z,101363.00
2018-08-20T18:41:59.832Z,101362.00
2018-08-20T18:44:28.668Z,101369.00
2018-08-20T18:46:57.535Z,101375.00
2018-08-20T18:49:26.906Z,101376.00
2018-08-20T18:52:07.934Z,101373.00
2018-08-20T18:54:40.441Z,101379.00
2018-08-20T18:57:09.295Z,101389.00
2018-08-20T18:59:39.202Z,101385.00
2018-08-20T19:02:12.035Z,101387.00
2018-08-20T19:04:46.970Z,101391.00
2018-08-20T19:07:22.947Z,101390.00
2018-08-20T19:09:51.745Z,101400.00
2018-08-20T19:12:20.552Z,101393.00
2018-08-20T19:14:49.355Z,101401.00
2018-08-20T19:17:22.061Z,101400.00
2018-08-20T19:19:51.019Z,101401.00
2018-08-20T19:22:25.086Z,101408.00
2018-08-20T19:24:54.403Z,101401.00
2018-08-20T19:27:28.872Z,101408.00
2018-08-20T19:29:58.071Z,101411.00
2018-08-20T19:32:26.873Z,101418.00
2018-08-20T19:34:55.717Z,101403.00
2018-08-20T19:37:24.526Z,101406.00
2018-08-20T19:39:53.334Z,101404.00
2018-08-20T19:42:27.788Z,101401.00
2018-08-20T19:44:56.619Z,101401.00
2018-08-20T19:47:25.414Z,101405.00
2018-08-20T19:49:54.610Z,101401.00
2018-08-20T19:52:23.490Z,101408.00
2018-08-20T19:54:56.448Z,101394.00
2018-08-20T19:57:25.263Z,101391.00
2018-08-20T19:59:54.117Z,101398.00
2018-08-20T20:02:23.384Z,101404.00
2018-08-20T20:04:52.207Z,101400.00
2018-08-20T20:07:21.456Z,101409.00
2018-08-20T20:09:50.396Z,101395.00
2018-08-20T20:12:19.260Z,101389.00
2018-08-20T20:14:48.650Z,101398.00
2018-08-20T20:17:17.490Z,101397.00
2018-08-20T20:19:46.290Z,101403.00
2018-08-20T20:22:16.504Z,101408.00
2018-08-20T20:24:45.898Z,101406.00
2018-08-20T20:27:14.703Z,101403.00
2018-08-20T20:29:43.515Z,101405.00
2018-08-20T20:32:12.324Z,101412.00
2018-08-20T20:34:41.142Z,101407.00
2018-08-20T20:37:09.936Z,101414.00
2018-08-20T20:39:45.043Z,101419.00
2018-08-20T20:42:13.943Z,101410.00
2018-08-20T20:44:42.742Z,101412.00
2018-08-20T20:47:11.922Z,101414.00
2018-08-20T20:49:40.671Z,101411.00
2018-08-20T20:52:10.002Z,101422.00
2018-08-20T20:54:38.835Z,101415.00
2018-08-20T20:57:07.836Z,101429.00
2018-08-20T20:59:36.738Z,101428.00
2018-08-20T21:02:05.560Z,101432.00
2018-08-20T21:04:36.099Z,101439.00
2018-08-20T21:07:06.451Z,101440.00
2018-08-20T21:09:40.748Z,101432.00
2018-08-20T21:12:09.563Z,101443.00
2018-08-20T21:14:38.365Z,101446.00
2018-08-20T21:17:07.213Z,101445.00
2018-08-20T21:19:36.348Z,101448.00
2018-08-20T21:22:07.025Z,101447.00
2018-08-20T21:24:35.833Z,101447.00
2018-08-20T21:27:08.210Z,101452.00
2018-08-20T21:29:37.012Z,101456.00
2018-08-20T21:32:05.839Z,101458.00
2018-08-20T21:34:38.749Z,101468.00
2018-08-20T21:37:07.889Z,101457.00
2018-08-20T21:39:37.040Z,101463.00
2018-08-20T21:42:05.885Z,101465.00
2018-08-20T21:44:34.817Z,101479.00
2018-08-20T21:47:21.250Z,101476.00
2018-08-20T21:49:50.087Z,101478.00
2018-08-20T21:52:19.530Z,101481.00
2018-08-20T21:54:48.339Z,101479.00
2018-08-20T21:57:17.128Z,101485.00
2018-08-20T22:00:03.612Z,101483.00
2018-08-20T22:02:32.892Z,101492.00
2018-08-20T22:05:01.730Z,101498.00
2018-08-20T22:07:30.843Z,101507.00
2018-08-20T22:09:59.734Z,101497.00
2018-08-20T22:12:28.555Z,101511.00
2018-08-20T22:14:57.355Z,101506.00
2018-08-20T22:17:29.030Z,101509.00
2018-08-20T22:19:57.874Z,101508.00
2018-08-20T22:22:27.779Z,101507.00
2018-08-20T22:25:00.801Z,101507.00
2018-08-20T22:27:31.315Z,101515.00
2018-08-20T22:30:02.186Z,101509.00
2018-08-20T22:32:31.465Z,101513.00
2018-08-20T22:35:00.335Z,101514.00
2018-08-20T22:37:29.531Z,101517.00
2018-08-20T22:40:03.739Z,101511.00
2018-08-20T22:42:49.790Z,101518.00
2018-08-20T22:45:20.099Z,101521.00
2018-08-20T22:47:49.931Z,101515.00
2018-08-20T22:50:19.415Z,101517.00
2018-08-20T22:52:50.762Z,101530.00
2018-08-20T22:55:20.834Z,101530.00
2018-08-20T22:58:05.875Z,101511.00
2018-08-20T23:00:34.710Z,101517.00
2018-08-20T23:03:03.532Z,101525.00
2018-08-20T23:05:33.392Z,101526.00
2018-08-20T23:08:08.788Z,101519.00
2018-08-20T23:10:40.843Z,101516.00
2018-08-20T23:13:09.641Z,101520.00
2018-08-20T23:15:38.438Z,101521.00
2018-08-20T23:18:07.233Z,101529.00
2018-08-20T23:20:36.030Z,101526.00
2018-08-20T23:23:04.825Z,101526.00
2018-08-20T23:25:34.015Z,101521.00
2018-08-20T23:28:02.843Z,101525.00
2018-08-20T23:30:31.775Z,101524.00
2018-08-20T23:33:00.589Z,101524.00
2018-08-20T23:35:29.402Z,101529.00
2018-08-20T23:37:58.208Z,101536.00
2018-08-20T23:40:27.946Z,101542.00
2018-08-20T23:42:56.738Z,101544.00
2018-08-20T23:45:25.530Z,101543.00
2018-08-20T23:47:54.791Z,101544.00
2018-08-20T23:50:23.620Z,101548.00
2018-08-20T23:52:52.918Z,101548.00
2018-08-20T23:55:21.705Z,101556.00
2018-08-20T23:57:50.489Z,101548.00
